sensor_id;sensor_type;location;lat;lon;timestamp;P1;durP1;ratioP1;P2;durP2;ratioP2
8544;SDS011;4310;51.054;6.994;2022-09-20T00:00:45;77.30;;;73.50;;
8544;SDS011;4310;51.054;6.994;2022-09-20T00:03:01;71.53;;;68.17;;
8544;SDS011;4310;51.054;6.994;2022-09-20T00:04:06;72.27;;;68.80;;
8544;SDS011;4310;51.054;6.994;2022-09-20T00:06:22;67.35;;;63.95;;
8544;SDS011;4310;51.054;6.994;2022-09-20T00:07:26;70.60;;;67.12;;
8544;SDS011;4310;51.054;6.994;2022-09-20T00:09:42;60.63;;;57.40;;
8544;SDS011;4310;51.054;6.994;2022-09-20T00:10:46;65.92;;;62.40;;
8544;SDS011;4310;51.054;6.994;2022-09-20T00:11:49;61.02;;;58.13;;
8544;SDS011;4310;51.054;6.994;2022-09-20T00:12:54;55.15;;;52.35;;
8544;SDS011;4310;51.054;6.994;2022-09-20T00:13:59;63.25;;;60.08;;
8544;SDS011;4310;51.054;6.994;2022-09-20T00:15:03;62.43;;;59.27;;
8544;SDS011;4310;51.054;6.994;2022-09-20T00:16:08;58.48;;;55.48;;
8544;SDS011;4310;51.054;6.994;2022-09-20T00:17:15;64.17;;;60.80;;
8544;SDS011;4310;51.054;6.994;2022-09-20T00:18:20;59.85;;;56.95;;
8544;SDS011;4310;51.054;6.994;2022-09-20T00:19:24;57.03;;;54.05;;
8544;SDS011;4310;51.054;6.994;2022-09-20T00:20:35;59.42;;;56.50;;
8544;SDS011;4310;51.054;6.994;2022-09-20T00:21:39;57.00;;;54.20;;
8544;SDS011;4310;51.054;6.994;2022-09-20T00:22:43;58.40;;;55.43;;
8544;SDS011;4310;51.054;6.994;2022-09-20T00:23:51;54.85;;;52.17;;
8544;SDS011;4310;51.054;6.994;2022-09-20T00:24:55;56.33;;;53.55;;
8544;SDS011;4310;51.054;6.994;2022-09-20T00:27:10;56.95;;;54.05;;
8544;SDS011;4310;51.054;6.994;2022-09-20T00:28:14;54.15;;;51.33;;
8544;SDS011;4310;51.054;6.994;2022-09-20T00:29:18;53.33;;;50.73;;
8544;SDS011;4310;51.054;6.994;2022-09-20T00:30:22;49.80;;;47.15;;
8544;SDS011;4310;51.054;6.994;2022-09-20T00:31:26;52.65;;;50.03;;
8544;SDS011;4310;51.054;6.994;2022-09-20T00:32:30;48.48;;;45.43;;
8544;SDS011;4310;51.054;6.994;2022-09-20T00:33:34;50.95;;;48.15;;
8544;SDS011;4310;51.054;6.994;2022-09-20T00:35:06;44.83;;;42.38;;
8544;SDS011;4310;51.054;6.994;2022-09-20T00:36:12;43.40;;;40.58;;
8544;SDS011;4310;51.054;6.994;2022-09-20T00:38:27;39.67;;;37.53;;
8544;SDS011;4310;51.054;6.994;2022-09-20T00:39:31;42.62;;;40.35;;
8544;SDS011;4310;51.054;6.994;2022-09-20T00:40:35;37.85;;;35.73;;
8544;SDS011;4310;51.054;6.994;2022-09-20T00:42:50;38.98;;;36.75;;
8544;SDS011;4310;51.054;6.994;2022-09-20T00:43:55;37.20;;;35.28;;
8544;SDS011;4310;51.054;6.994;2022-09-20T00:44:59;36.50;;;34.27;;
8544;SDS011;4310;51.054;6.994;2022-09-20T00:46:04;40.50;;;38.40;;
8544;SDS011;4310;51.054;6.994;2022-09-20T00:47:12;38.23;;;35.92;;
8544;SDS011;4310;51.054;6.994;2022-09-20T00:48:17;37.50;;;35.20;;
8544;SDS011;4310;51.054;6.994;2022-09-20T00:49:23;40.73;;;38.13;;
8544;SDS011;4310;51.054;6.994;2022-09-20T00:51:43;45.45;;;42.73;;
8544;SDS011;4310;51.054;6.994;2022-09-20T00:52:48;46.92;;;44.40;;
8544;SDS011;4310;51.054;6.994;2022-09-20T00:53:53;47.35;;;44.75;;
8544;SDS011;4310;51.054;6.994;2022-09-20T00:54:57;42.75;;;40.43;;
8544;SDS011;4310;51.054;6.994;2022-09-20T00:56:03;41.45;;;38.90;;
8544;SDS011;4310;51.054;6.994;2022-09-20T00:57:07;46.40;;;43.83;;
8544;SDS011;4310;51.054;6.994;2022-09-20T00:58:11;46.25;;;43.70;;
8544;SDS011;4310;51.054;6.994;2022-09-20T00:59:20;48.45;;;46.15;;
8544;SDS011;4310;51.054;6.994;2022-09-20T01:00:24;48.00;;;45.48;;
8544;SDS011;4310;51.054;6.994;2022-09-20T01:01:29;48.75;;;46.35;;
8544;SDS011;4310;51.054;6.994;2022-09-20T01:02:33;47.38;;;44.75;;
8544;SDS011;4310;51.054;6.994;2022-09-20T01:03:38;48.80;;;46.30;;
8544;SDS011;4310;51.054;6.994;2022-09-20T01:05:55;50.98;;;48.48;;
8544;SDS011;4310;51.054;6.994;2022-09-20T01:06:59;50.30;;;47.78;;
8544;SDS011;4310;51.054;6.994;2022-09-20T01:08:04;50.23;;;47.60;;
8544;SDS011;4310;51.054;6.994;2022-09-20T01:09:09;50.20;;;47.50;;
8544;SDS011;4310;51.054;6.994;2022-09-20T01:10:13;50.50;;;47.80;;
8544;SDS011;4310;51.054;6.994;2022-09-20T01:12:29;49.70;;;46.92;;
8544;SDS011;4310;51.054;6.994;2022-09-20T01:13:36;46.50;;;44.10;;
8544;SDS011;4310;51.054;6.994;2022-09-20T01:15:51;48.63;;;45.83;;
8544;SDS011;4310;51.054;6.994;2022-09-20T01:16:56;52.67;;;49.75;;
8544;SDS011;4310;51.054;6.994;2022-09-20T01:18:01;49.33;;;46.63;;
8544;SDS011;4310;51.054;6.994;2022-09-20T01:19:07;51.77;;;49.10;;
8544;SDS011;4310;51.054;6.994;2022-09-20T01:20:11;47.67;;;45.17;;
8544;SDS011;4310;51.054;6.994;2022-09-20T01:21:17;43.68;;;41.55;;
8544;SDS011;4310;51.054;6.994;2022-09-20T01:22:22;49.18;;;46.58;;
8544;SDS011;4310;51.054;6.994;2022-09-20T01:23:30;46.58;;;43.98;;
8544;SDS011;4310;51.054;6.994;2022-09-20T01:24:36;52.10;;;49.18;;
8544;SDS011;4310;51.054;6.994;2022-09-20T01:27:09;44.20;;;41.90;;
8544;SDS011;4310;51.054;6.994;2022-09-20T01:29:29;46.10;;;43.68;;
8544;SDS011;4310;51.054;6.994;2022-09-20T01:31:45;46.20;;;43.70;;
8544;SDS011;4310;51.054;6.994;2022-09-20T01:32:55;48.95;;;46.35;;
8544;SDS011;4310;51.054;6.994;2022-09-20T01:33:57;48.80;;;46.20;;
8544;SDS011;4310;51.054;6.994;2022-09-20T01:35:01;48.02;;;45.43;;
8544;SDS011;4310;51.054;6.994;2022-09-20T01:36:06;44.95;;;42.45;;
8544;SDS011;4310;51.054;6.994;2022-09-20T01:37:13;48.65;;;45.92;;
8544;SDS011;4310;51.054;6.994;2022-09-20T01:38:21;49.80;;;46.98;;
8544;SDS011;4310;51.054;6.994;2022-09-20T01:39:28;52.58;;;49.77;;
8544;SDS011;4310;51.054;6.994;2022-09-20T01:40:30;48.67;;;45.97;;
8544;SDS011;4310;51.054;6.994;2022-09-20T01:41:36;53.02;;;50.45;;
8544;SDS011;4310;51.054;6.994;2022-09-20T01:43:53;50.83;;;48.20;;
8544;SDS011;4310;51.054;6.994;2022-09-20T01:44:59;54.67;;;51.45;;
8544;SDS011;4310;51.054;6.994;2022-09-20T01:46:06;50.43;;;47.78;;
8544;SDS011;4310;51.054;6.994;2022-09-20T01:47:13;55.40;;;52.67;;
8544;SDS011;4310;51.054;6.994;2022-09-20T01:48:18;54.05;;;51.30;;
8544;SDS011;4310;51.054;6.994;2022-09-20T01:49:26;50.80;;;48.02;;
8544;SDS011;4310;51.054;6.994;2022-09-20T01:50:31;51.63;;;48.90;;
8544;SDS011;4310;51.054;6.994;2022-09-20T01:51:51;51.40;;;48.63;;
8544;SDS011;4310;51.054;6.994;2022-09-20T01:54:21;48.13;;;45.45;;
8544;SDS011;4310;51.054;6.994;2022-09-20T01:56:55;40.80;;;38.53;;
8544;SDS011;4310;51.054;6.994;2022-09-20T01:59:40;53.05;;;50.35;;
8544;SDS011;4310;51.054;6.994;2022-09-20T02:00:53;52.05;;;49.23;;
8544;SDS011;4310;51.054;6.994;2022-09-20T02:02:15;50.35;;;47.85;;
8544;SDS011;4310;51.054;6.994;2022-09-20T02:07:47;54.33;;;51.28;;
8544;SDS011;4310;51.054;6.994;2022-09-20T02:11:39;58.67;;;55.73;;
8544;SDS011;4310;51.054;6.994;2022-09-20T02:12:52;56.08;;;53.17;;
8544;SDS011;4310;51.054;6.994;2022-09-20T02:14:00;53.10;;;50.45;;
8544;SDS011;4310;51.054;6.994;2022-09-20T02:15:05;51.45;;;48.75;;
8544;SDS011;4310;51.054;6.994;2022-09-20T02:17:39;53.55;;;50.55;;
8544;SDS011;4310;51.054;6.994;2022-09-20T02:18:57;53.28;;;50.67;;
8544;SDS011;4310;51.054;6.994;2022-09-20T02:22:41;57.17;;;54.07;;
8544;SDS011;4310;51.054;6.994;2022-09-20T02:23:47;57.95;;;55.25;;
8544;SDS011;4310;51.054;6.994;2022-09-20T02:24:54;60.30;;;57.20;;
8544;SDS011;4310;51.054;6.994;2022-09-20T02:26:02;59.42;;;56.13;;
8544;SDS011;4310;51.054;6.994;2022-09-20T02:27:06;60.17;;;57.05;;
8544;SDS011;4310;51.054;6.994;2022-09-20T02:28:16;60.60;;;57.48;;
8544;SDS011;4310;51.054;6.994;2022-09-20T02:30:37;61.65;;;58.55;;
8544;SDS011;4310;51.054;6.994;2022-09-20T02:31:48;58.87;;;55.85;;
8544;SDS011;4310;51.054;6.994;2022-09-20T02:32:56;63.17;;;59.98;;
8544;SDS011;4310;51.054;6.994;2022-09-20T02:35:17;63.25;;;60.15;;
8544;SDS011;4310;51.054;6.994;2022-09-20T02:36:25;60.50;;;57.23;;
8544;SDS011;4310;51.054;6.994;2022-09-20T02:39:05;63.98;;;60.73;;
8544;SDS011;4310;51.054;6.994;2022-09-20T02:40:12;57.83;;;54.70;;
8544;SDS011;4310;51.054;6.994;2022-09-20T02:41:21;51.88;;;48.95;;
8544;SDS011;4310;51.054;6.994;2022-09-20T02:42:27;57.80;;;55.00;;
8544;SDS011;4310;51.054;6.994;2022-09-20T02:44:46;59.45;;;56.55;;
8544;SDS011;4310;51.054;6.994;2022-09-20T02:45:53;59.85;;;56.75;;
8544;SDS011;4310;51.054;6.994;2022-09-20T02:46:59;57.40;;;54.23;;
8544;SDS011;4310;51.054;6.994;2022-09-20T02:48:07;59.00;;;56.02;;
8544;SDS011;4310;51.054;6.994;2022-09-20T02:49:12;54.55;;;51.65;;
8544;SDS011;4310;51.054;6.994;2022-09-20T02:50:19;55.12;;;52.17;;
8544;SDS011;4310;51.054;6.994;2022-09-20T02:51:24;59.35;;;56.25;;
8544;SDS011;4310;51.054;6.994;2022-09-20T02:52:31;61.83;;;58.73;;
8544;SDS011;4310;51.054;6.994;2022-09-20T02:54:50;53.08;;;50.08;;
8544;SDS011;4310;51.054;6.994;2022-09-20T02:55:59;54.23;;;51.30;;
8544;SDS011;4310;51.054;6.994;2022-09-20T02:57:04;54.13;;;51.23;;
8544;SDS011;4310;51.054;6.994;2022-09-20T02:58:15;50.73;;;48.00;;
8544;SDS011;4310;51.054;6.994;2022-09-20T02:59:21;49.67;;;47.10;;
8544;SDS011;4310;51.054;6.994;2022-09-20T03:00:28;56.60;;;53.60;;
8544;SDS011;4310;51.054;6.994;2022-09-20T03:01:37;58.70;;;55.78;;
8544;SDS011;4310;51.054;6.994;2022-09-20T03:02:44;63.38;;;60.17;;
8544;SDS011;4310;51.054;6.994;2022-09-20T03:03:50;64.62;;;61.33;;
8544;SDS011;4310;51.054;6.994;2022-09-20T03:05:01;54.70;;;52.10;;
8544;SDS011;4310;51.054;6.994;2022-09-20T03:06:07;62.50;;;59.45;;
8544;SDS011;4310;51.054;6.994;2022-09-20T03:07:15;63.95;;;60.35;;
8544;SDS011;4310;51.054;6.994;2022-09-20T03:09:36;66.50;;;62.95;;
8544;SDS011;4310;51.054;6.994;2022-09-20T03:10:40;52.03;;;49.42;;
8544;SDS011;4310;51.054;6.994;2022-09-20T03:11:46;58.13;;;55.03;;
8544;SDS011;4310;51.054;6.994;2022-09-20T03:13:09;68.45;;;65.05;;
8544;SDS011;4310;51.054;6.994;2022-09-20T03:14:10;57.93;;;54.95;;
8544;SDS011;4310;51.054;6.994;2022-09-20T03:15:19;51.45;;;48.70;;
8544;SDS011;4310;51.054;6.994;2022-09-20T03:16:26;65.28;;;61.88;;
8544;SDS011;4310;51.054;6.994;2022-09-20T03:17:31;50.17;;;47.38;;
8544;SDS011;4310;51.054;6.994;2022-09-20T03:19:55;63.05;;;59.88;;
8544;SDS011;4310;51.054;6.994;2022-09-20T03:21:00;61.63;;;58.52;;
8544;SDS011;4310;51.054;6.994;2022-09-20T03:22:08;62.05;;;58.75;;
8544;SDS011;4310;51.054;6.994;2022-09-20T03:23:13;61.53;;;58.65;;
8544;SDS011;4310;51.054;6.994;2022-09-20T03:24:18;62.98;;;59.88;;
8544;SDS011;4310;51.054;6.994;2022-09-20T03:25:29;54.83;;;52.08;;
8544;SDS011;4310;51.054;6.994;2022-09-20T03:26:35;64.20;;;61.10;;
8544;SDS011;4310;51.054;6.994;2022-09-20T03:27:42;61.35;;;58.15;;
8544;SDS011;4310;51.054;6.994;2022-09-20T03:30:07;48.73;;;46.02;;
8544;SDS011;4310;51.054;6.994;2022-09-20T03:31:14;65.95;;;62.60;;
8544;SDS011;4310;51.054;6.994;2022-09-20T03:32:25;60.15;;;56.92;;
8544;SDS011;4310;51.054;6.994;2022-09-20T03:34:44;61.18;;;57.73;;
8544;SDS011;4310;51.054;6.994;2022-09-20T03:35:52;51.28;;;48.65;;
8544;SDS011;4310;51.054;6.994;2022-09-20T03:37:04;59.18;;;56.10;;
8544;SDS011;4310;51.054;6.994;2022-09-20T03:38:14;57.08;;;54.03;;
8544;SDS011;4310;51.054;6.994;2022-09-20T03:39:24;48.98;;;45.98;;
8544;SDS011;4310;51.054;6.994;2022-09-20T03:40:34;57.17;;;54.20;;
8544;SDS011;4310;51.054;6.994;2022-09-20T03:41:39;55.95;;;53.17;;
8544;SDS011;4310;51.054;6.994;2022-09-20T03:42:45;59.05;;;56.10;;
8544;SDS011;4310;51.054;6.994;2022-09-20T03:44:02;59.40;;;56.35;;
8544;SDS011;4310;51.054;6.994;2022-09-20T03:45:14;60.33;;;57.08;;
8544;SDS011;4310;51.054;6.994;2022-09-20T03:47:33;61.33;;;58.13;;
8544;SDS011;4310;51.054;6.994;2022-09-20T03:48:42;58.65;;;55.83;;
8544;SDS011;4310;51.054;6.994;2022-09-20T03:49:52;63.73;;;60.38;;
8544;SDS011;4310;51.054;6.994;2022-09-20T03:51:02;66.00;;;62.60;;
8544;SDS011;4310;51.054;6.994;2022-09-20T03:52:08;67.60;;;64.30;;
8544;SDS011;4310;51.054;6.994;2022-09-20T03:53:19;64.15;;;61.05;;
8544;SDS011;4310;51.054;6.994;2022-09-20T03:54:33;60.03;;;56.85;;
8544;SDS011;4310;51.054;6.994;2022-09-20T03:55:48;67.17;;;63.58;;
8544;SDS011;4310;51.054;6.994;2022-09-20T03:57:11;59.90;;;56.20;;
8544;SDS011;4310;51.054;6.994;2022-09-20T03:58:23;55.48;;;52.85;;
8544;SDS011;4310;51.054;6.994;2022-09-20T03:59:36;61.68;;;58.30;;
8544;SDS011;4310;51.054;6.994;2022-09-20T04:00:45;69.58;;;66.17;;
8544;SDS011;4310;51.054;6.994;2022-09-20T04:02:00;64.92;;;61.60;;
8544;SDS011;4310;51.054;6.994;2022-09-20T04:04:24;70.30;;;66.60;;
8544;SDS011;4310;51.054;6.994;2022-09-20T04:05:32;65.25;;;61.53;;
8544;SDS011;4310;51.054;6.994;2022-09-20T04:06:42;65.37;;;62.10;;
8544;SDS011;4310;51.054;6.994;2022-09-20T04:07:49;69.85;;;66.25;;
8544;SDS011;4310;51.054;6.994;2022-09-20T04:09:12;67.40;;;64.15;;
8544;SDS011;4310;51.054;6.994;2022-09-20T04:10:25;67.35;;;64.10;;
8544;SDS011;4310;51.054;6.994;2022-09-20T04:11:31;69.30;;;65.80;;
8544;SDS011;4310;51.054;6.994;2022-09-20T04:13:51;73.00;;;69.47;;
8544;SDS011;4310;51.054;6.994;2022-09-20T04:16:18;76.85;;;72.67;;
8544;SDS011;4310;51.054;6.994;2022-09-20T04:17:24;74.40;;;70.60;;
8544;SDS011;4310;51.054;6.994;2022-09-20T04:18:29;73.67;;;69.80;;
8544;SDS011;4310;51.054;6.994;2022-09-20T04:19:34;72.85;;;69.37;;
8544;SDS011;4310;51.054;6.994;2022-09-20T04:20:39;67.82;;;64.25;;
8544;SDS011;4310;51.054;6.994;2022-09-20T04:21:47;74.45;;;70.65;;
8544;SDS011;4310;51.054;6.994;2022-09-20T04:24:03;72.55;;;68.78;;
8544;SDS011;4310;51.054;6.994;2022-09-20T04:25:11;71.85;;;68.15;;
8544;SDS011;4310;51.054;6.994;2022-09-20T04:26:19;72.60;;;68.85;;
8544;SDS011;4310;51.054;6.994;2022-09-20T04:27:26;67.53;;;64.15;;
8544;SDS011;4310;51.054;6.994;2022-09-20T04:28:32;68.28;;;64.87;;
8544;SDS011;4310;51.054;6.994;2022-09-20T04:29:36;73.20;;;69.55;;
8544;SDS011;4310;51.054;6.994;2022-09-20T04:30:41;79.42;;;75.30;;
8544;SDS011;4310;51.054;6.994;2022-09-20T04:31:47;76.20;;;72.22;;
8544;SDS011;4310;51.054;6.994;2022-09-20T04:34:04;65.90;;;62.43;;
8544;SDS011;4310;51.054;6.994;2022-09-20T04:35:12;76.47;;;72.75;;
8544;SDS011;4310;51.054;6.994;2022-09-20T04:36:52;71.80;;;67.75;;
8544;SDS011;4310;51.054;6.994;2022-09-20T04:37:50;72.03;;;68.42;;
8544;SDS011;4310;51.054;6.994;2022-09-20T04:38:58;68.47;;;64.80;;
8544;SDS011;4310;51.054;6.994;2022-09-20T04:40:07;73.65;;;69.77;;
8544;SDS011;4310;51.054;6.994;2022-09-20T04:41:17;67.53;;;64.32;;
8544;SDS011;4310;51.054;6.994;2022-09-20T04:45:13;66.57;;;62.90;;
8544;SDS011;4310;51.054;6.994;2022-09-20T04:48:00;56.25;;;53.10;;
8544;SDS011;4310;51.054;6.994;2022-09-20T04:49:19;63.52;;;59.98;;
8544;SDS011;4310;51.054;6.994;2022-09-20T04:54:43;65.12;;;61.73;;
8544;SDS011;4310;51.054;6.994;2022-09-20T04:55:53;56.77;;;53.90;;
8544;SDS011;4310;51.054;6.994;2022-09-20T04:57:04;57.55;;;54.60;;
8544;SDS011;4310;51.054;6.994;2022-09-20T04:59:42;52.00;;;49.42;;
8544;SDS011;4310;51.054;6.994;2022-09-20T05:00:51;56.08;;;53.23;;
8544;SDS011;4310;51.054;6.994;2022-09-20T05:03:20;60.23;;;56.92;;
8544;SDS011;4310;51.054;6.994;2022-09-20T05:05:53;52.35;;;49.42;;
8544;SDS011;4310;51.054;6.994;2022-09-20T05:07:05;54.42;;;51.45;;
8544;SDS011;4310;51.054;6.994;2022-09-20T05:09:50;57.15;;;54.08;;
8544;SDS011;4310;51.054;6.994;2022-09-20T05:16:59;66.42;;;63.02;;
8544;SDS011;4310;51.054;6.994;2022-09-20T05:18:09;63.90;;;60.55;;
8544;SDS011;4310;51.054;6.994;2022-09-20T05:19:15;58.23;;;55.20;;
8544;SDS011;4310;51.054;6.994;2022-09-20T05:20:29;61.88;;;58.50;;
8544;SDS011;4310;51.054;6.994;2022-09-20T05:23:10;64.67;;;61.48;;
8544;SDS011;4310;51.054;6.994;2022-09-20T05:24:27;61.00;;;58.00;;
8544;SDS011;4310;51.054;6.994;2022-09-20T05:26:58;56.05;;;52.62;;
8544;SDS011;4310;51.054;6.994;2022-09-20T05:28:02;60.65;;;57.38;;
8544;SDS011;4310;51.054;6.994;2022-09-20T05:29:09;62.83;;;59.15;;
8544;SDS011;4310;51.054;6.994;2022-09-20T05:31:29;55.10;;;52.00;;
8544;SDS011;4310;51.054;6.994;2022-09-20T05:32:34;60.15;;;56.92;;
8544;SDS011;4310;51.054;6.994;2022-09-20T05:33:42;55.10;;;52.08;;
8544;SDS011;4310;51.054;6.994;2022-09-20T05:34:46;59.98;;;56.83;;
8544;SDS011;4310;51.054;6.994;2022-09-20T05:35:55;56.42;;;53.15;;
8544;SDS011;4310;51.054;6.994;2022-09-20T05:37:00;52.73;;;49.90;;
8544;SDS011;4310;51.054;6.994;2022-09-20T05:38:09;56.13;;;53.00;;
8544;SDS011;4310;51.054;6.994;2022-09-20T05:39:15;54.77;;;51.37;;
8544;SDS011;4310;51.054;6.994;2022-09-20T05:40:24;53.08;;;50.38;;
8544;SDS011;4310;51.054;6.994;2022-09-20T05:41:28;60.80;;;57.30;;
8544;SDS011;4310;51.054;6.994;2022-09-20T05:42:35;56.92;;;53.92;;
8544;SDS011;4310;51.054;6.994;2022-09-20T05:44:56;51.37;;;48.15;;
8544;SDS011;4310;51.054;6.994;2022-09-20T05:46:09;50.88;;;48.08;;
8544;SDS011;4310;51.054;6.994;2022-09-20T05:47:11;56.58;;;53.73;;
8544;SDS011;4310;51.054;6.994;2022-09-20T05:49:33;50.95;;;47.93;;
8544;SDS011;4310;51.054;6.994;2022-09-20T05:50:40;59.38;;;55.88;;
8544;SDS011;4310;51.054;6.994;2022-09-20T05:51:57;57.00;;;53.90;;
8544;SDS011;4310;51.054;6.994;2022-09-20T05:53:23;49.15;;;46.33;;
8544;SDS011;4310;51.054;6.994;2022-09-20T05:54:24;46.70;;;44.00;;
8544;SDS011;4310;51.054;6.994;2022-09-20T05:55:37;47.40;;;44.65;;
8544;SDS011;4310;51.054;6.994;2022-09-20T05:56:41;53.85;;;50.92;;
8544;SDS011;4310;51.054;6.994;2022-09-20T05:59:19;52.65;;;49.35;;
8544;SDS011;4310;51.054;6.994;2022-09-20T06:00:22;51.57;;;48.53;;
8544;SDS011;4310;51.054;6.994;2022-09-20T06:01:30;53.17;;;49.98;;
8544;SDS011;4310;51.054;6.994;2022-09-20T06:02:38;47.08;;;44.30;;
8544;SDS011;4310;51.054;6.994;2022-09-20T06:03:44;50.98;;;47.83;;
8544;SDS011;4310;51.054;6.994;2022-09-20T06:04:51;48.75;;;45.85;;
8544;SDS011;4310;51.054;6.994;2022-09-20T06:06:00;46.15;;;43.50;;
8544;SDS011;4310;51.054;6.994;2022-09-20T06:08:27;53.23;;;50.03;;
8544;SDS011;4310;51.054;6.994;2022-09-20T06:09:38;43.02;;;40.63;;
8544;SDS011;4310;51.054;6.994;2022-09-20T06:10:48;49.88;;;47.17;;
8544;SDS011;4310;51.054;6.994;2022-09-20T06:12:07;42.80;;;40.20;;
8544;SDS011;4310;51.054;6.994;2022-09-20T06:13:17;52.13;;;48.90;;
8544;SDS011;4310;51.054;6.994;2022-09-20T06:14:28;44.98;;;42.03;;
8544;SDS011;4310;51.054;6.994;2022-09-20T06:16:45;42.20;;;39.50;;
8544;SDS011;4310;51.054;6.994;2022-09-20T06:17:52;47.27;;;44.08;;
8544;SDS011;4310;51.054;6.994;2022-09-20T06:18:58;53.52;;;50.55;;
8544;SDS011;4310;51.054;6.994;2022-09-20T06:20:09;52.25;;;49.15;;
8544;SDS011;4310;51.054;6.994;2022-09-20T06:21:16;48.63;;;45.90;;
8544;SDS011;4310;51.054;6.994;2022-09-20T06:23:32;51.28;;;48.35;;
8544;SDS011;4310;51.054;6.994;2022-09-20T06:24:37;48.23;;;45.45;;
8544;SDS011;4310;51.054;6.994;2022-09-20T06:25:43;51.88;;;48.68;;
8544;SDS011;4310;51.054;6.994;2022-09-20T06:26:49;52.00;;;49.20;;
8544;SDS011;4310;51.054;6.994;2022-09-20T06:27:54;49.95;;;47.17;;
8544;SDS011;4310;51.054;6.994;2022-09-20T06:29:01;49.53;;;46.73;;
8544;SDS011;4310;51.054;6.994;2022-09-20T06:30:06;49.67;;;47.08;;
8544;SDS011;4310;51.054;6.994;2022-09-20T06:31:10;39.75;;;37.10;;
8544;SDS011;4310;51.054;6.994;2022-09-20T06:32:15;44.15;;;41.55;;
8544;SDS011;4310;51.054;6.994;2022-09-20T06:33:20;46.70;;;43.73;;
8544;SDS011;4310;51.054;6.994;2022-09-20T06:34:24;39.80;;;37.15;;
8544;SDS011;4310;51.054;6.994;2022-09-20T06:35:31;44.93;;;42.33;;
8544;SDS011;4310;51.054;6.994;2022-09-20T06:36:36;44.58;;;41.80;;
8544;SDS011;4310;51.054;6.994;2022-09-20T06:37:59;42.78;;;40.00;;
8544;SDS011;4310;51.054;6.994;2022-09-20T06:41:46;34.33;;;32.10;;
8544;SDS011;4310;51.054;6.994;2022-09-20T06:42:51;39.58;;;37.08;;
8544;SDS011;4310;51.054;6.994;2022-09-20T06:43:55;34.13;;;31.67;;
8544;SDS011;4310;51.054;6.994;2022-09-20T06:45:00;31.10;;;28.70;;
8544;SDS011;4310;51.054;6.994;2022-09-20T06:46:04;38.20;;;35.68;;
8544;SDS011;4310;51.054;6.994;2022-09-20T06:47:08;34.35;;;32.15;;
8544;SDS011;4310;51.054;6.994;2022-09-20T06:48:12;33.75;;;31.20;;
8544;SDS011;4310;51.054;6.994;2022-09-20T06:49:17;31.25;;;29.12;;
8544;SDS011;4310;51.054;6.994;2022-09-20T06:50:21;31.52;;;29.25;;
8544;SDS011;4310;51.054;6.994;2022-09-20T06:51:25;32.00;;;29.90;;
8544;SDS011;4310;51.054;6.994;2022-09-20T06:52:30;29.40;;;27.50;;
8544;SDS011;4310;51.054;6.994;2022-09-20T06:53:35;34.13;;;31.87;;
8544;SDS011;4310;51.054;6.994;2022-09-20T06:54:40;35.10;;;32.88;;
8544;SDS011;4310;51.054;6.994;2022-09-20T06:55:46;33.18;;;31.10;;
8544;SDS011;4310;51.054;6.994;2022-09-20T06:56:50;30.57;;;28.35;;
8544;SDS011;4310;51.054;6.994;2022-09-20T06:57:54;33.25;;;31.10;;
8544;SDS011;4310;51.054;6.994;2022-09-20T06:58:57;32.28;;;29.98;;
8544;SDS011;4310;51.054;6.994;2022-09-20T07:00:01;30.80;;;28.75;;
8544;SDS011;4310;51.054;6.994;2022-09-20T07:01:05;30.45;;;28.45;;
8544;SDS011;4310;51.054;6.994;2022-09-20T07:02:09;29.00;;;26.82;;
8544;SDS011;4310;51.054;6.994;2022-09-20T07:03:12;28.52;;;26.62;;
8544;SDS011;4310;51.054;6.994;2022-09-20T07:04:16;29.65;;;27.75;;
8544;SDS011;4310;51.054;6.994;2022-09-20T07:05:20;25.02;;;23.27;;
8544;SDS011;4310;51.054;6.994;2022-09-20T07:06:24;30.17;;;28.02;;
8544;SDS011;4310;51.054;6.994;2022-09-20T07:07:28;27.80;;;25.97;;
8544;SDS011;4310;51.054;6.994;2022-09-20T07:08:31;28.05;;;26.07;;
8544;SDS011;4310;51.054;6.994;2022-09-20T07:09:35;24.95;;;23.02;;
8544;SDS011;4310;51.054;6.994;2022-09-20T07:10:39;24.47;;;22.50;;
8544;SDS011;4310;51.054;6.994;2022-09-20T07:11:44;22.50;;;20.68;;
8544;SDS011;4310;51.054;6.994;2022-09-20T07:12:48;20.77;;;19.27;;
8544;SDS011;4310;51.054;6.994;2022-09-20T07:13:53;24.07;;;21.90;;
8544;SDS011;4310;51.054;6.994;2022-09-20T07:14:57;19.00;;;17.70;;
8544;SDS011;4310;51.054;6.994;2022-09-20T07:16:01;23.62;;;21.93;;
8544;SDS011;4310;51.054;6.994;2022-09-20T07:17:05;24.90;;;23.00;;
8544;SDS011;4310;51.054;6.994;2022-09-20T07:18:09;19.13;;;17.53;;
8544;SDS011;4310;51.054;6.994;2022-09-20T07:19:12;22.90;;;21.10;;
8544;SDS011;4310;51.054;6.994;2022-09-20T07:20:17;24.92;;;23.07;;
8544;SDS011;4310;51.054;6.994;2022-09-20T07:22:33;15.98;;;14.68;;
8544;SDS011;4310;51.054;6.994;2022-09-20T07:23:37;15.25;;;13.75;;
8544;SDS011;4310;51.054;6.994;2022-09-20T07:24:41;12.88;;;10.58;;
8544;SDS011;4310;51.054;6.994;2022-09-20T07:25:46;17.50;;;16.23;;
8544;SDS011;4310;51.054;6.994;2022-09-20T07:26:57;13.55;;;12.00;;
8544;SDS011;4310;51.054;6.994;2022-09-20T07:28:01;14.38;;;13.05;;
8544;SDS011;4310;51.054;6.994;2022-09-20T07:29:05;12.57;;;10.33;;
8544;SDS011;4310;51.054;6.994;2022-09-20T07:31:22;10.00;;;6.15;;
8544;SDS011;4310;51.054;6.994;2022-09-20T07:32:26;10.08;;;6.70;;
8544;SDS011;4310;51.054;6.994;2022-09-20T07:33:30;10.15;;;7.08;;
8544;SDS011;4310;51.054;6.994;2022-09-20T07:34:34;9.38;;;6.15;;
8544;SDS011;4310;51.054;6.994;2022-09-20T07:35:37;8.53;;;5.72;;
8544;SDS011;4310;51.054;6.994;2022-09-20T07:36:42;10.40;;;5.62;;
8544;SDS011;4310;51.054;6.994;2022-09-20T07:37:46;8.53;;;5.17;;
8544;SDS011;4310;51.054;6.994;2022-09-20T07:38:51;7.33;;;5.22;;
8544;SDS011;4310;51.054;6.994;2022-09-20T07:39:55;11.35;;;5.40;;
8544;SDS011;4310;51.054;6.994;2022-09-20T07:40:59;7.08;;;5.33;;
8544;SDS011;4310;51.054;6.994;2022-09-20T07:42:03;8.38;;;5.10;;
8544;SDS011;4310;51.054;6.994;2022-09-20T07:43:08;8.45;;;5.17;;
8544;SDS011;4310;51.054;6.994;2022-09-20T07:44:12;10.03;;;6.00;;
8544;SDS011;4310;51.054;6.994;2022-09-20T07:45:26;9.10;;;5.78;;
8544;SDS011;4310;51.054;6.994;2022-09-20T07:46:30;11.40;;;6.08;;
8544;SDS011;4310;51.054;6.994;2022-09-20T07:47:35;14.83;;;5.67;;
8544;SDS011;4310;51.054;6.994;2022-09-20T07:48:41;9.23;;;5.20;;
8544;SDS011;4310;51.054;6.994;2022-09-20T07:49:44;9.78;;;5.10;;
8544;SDS011;4310;51.054;6.994;2022-09-20T07:50:51;8.48;;;5.25;;
8544;SDS011;4310;51.054;6.994;2022-09-20T07:51:56;9.58;;;5.20;;
8544;SDS011;4310;51.054;6.994;2022-09-20T07:53:00;9.20;;;5.17;;
8544;SDS011;4310;51.054;6.994;2022-09-20T07:54:05;10.37;;;5.10;;
8544;SDS011;4310;51.054;6.994;2022-09-20T07:55:08;10.68;;;4.90;;
8544;SDS011;4310;51.054;6.994;2022-09-20T07:56:13;8.23;;;4.80;;
8544;SDS011;4310;51.054;6.994;2022-09-20T07:58:29;10.10;;;4.97;;
8544;SDS011;4310;51.054;6.994;2022-09-20T07:59:33;7.87;;;4.50;;
8544;SDS011;4310;51.054;6.994;2022-09-20T08:00:37;9.98;;;4.90;;
8544;SDS011;4310;51.054;6.994;2022-09-20T08:01:41;8.13;;;4.40;;
8544;SDS011;4310;51.054;6.994;2022-09-20T08:02:44;7.15;;;4.50;;
8544;SDS011;4310;51.054;6.994;2022-09-20T08:03:48;10.45;;;5.08;;
8544;SDS011;4310;51.054;6.994;2022-09-20T08:04:53;8.28;;;4.37;;
8544;SDS011;4310;51.054;6.994;2022-09-20T08:06:00;10.05;;;4.22;;
8544;SDS011;4310;51.054;6.994;2022-09-20T08:07:04;6.80;;;4.22;;
8544;SDS011;4310;51.054;6.994;2022-09-20T08:08:07;7.22;;;4.00;;
8544;SDS011;4310;51.054;6.994;2022-09-20T08:09:13;7.80;;;4.15;;
8544;SDS011;4310;51.054;6.994;2022-09-20T08:10:17;7.75;;;4.10;;
8544;SDS011;4310;51.054;6.994;2022-09-20T08:11:21;9.20;;;4.20;;
8544;SDS011;4310;51.054;6.994;2022-09-20T08:12:26;10.65;;;4.92;;
8544;SDS011;4310;51.054;6.994;2022-09-20T08:13:31;8.18;;;3.90;;
8544;SDS011;4310;51.054;6.994;2022-09-20T08:14:34;7.20;;;3.80;;